Spencer, Massachusetts
Current Conditions -  °F | °C
As of 7:54 PM on Monday 24 Nov 2014 (Local Time) from KORH Reporting Station
Clear Clear  
Wind Chill: 59°   Ceiling: Unl
Heat Index: 59°   Visibility: 10mi
Dew Point: 54°   Wind: 22mph
Humidity: 83%   Direction: 240°WSW
Pressure: 29.66"   Gusts: 29mph
Location:  42.24°N, 71.99°W
Report Text: KORH 250054Z 24019G25KT 10SM CLR 15/12 A2966 RMK AO2 SLP045 T01500122 $
Loading
Personal Weather Stations






























Interactive Weather Map New forecast layout! Learn more

10-Day Weather Forecast

Advertisements
Track Severe Weather on mobile